createdAt,value
2022-08-09T00:00:46.081Z,54.40
2022-08-09T00:01:52.625Z,54.13
2022-08-09T00:02:49.318Z,54.33
2022-08-09T00:04:05.935Z,54.13
2022-08-09T00:04:42.869Z,54.22
2022-08-09T00:06:17.893Z,54.43
2022-08-09T00:06:44.268Z,54.72
2022-08-09T00:07:44.457Z,54.22
2022-08-09T00:08:41.877Z,54.43
2022-08-09T00:09:41.815Z,54.53
2022-08-09T00:10:41.789Z,54.63
2022-08-09T00:11:58.617Z,54.75
2022-08-09T00:12:42.697Z,55.46
2022-08-09T00:13:41.713Z,55.68
2022-08-09T00:14:41.708Z,55.48
2022-08-09T00:15:59.040Z,55.88
2022-08-09T00:16:42.600Z,56.09
2022-08-09T00:18:04.433Z,56.09
2022-08-09T00:18:42.585Z,56.09
2022-08-09T00:19:41.613Z,55.28
2022-08-09T00:20:50.066Z,55.96
2022-08-09T00:21:55.625Z,55.48
2022-08-09T00:22:42.492Z,55.55
2022-08-09T00:23:55.199Z,55.26
2022-08-09T00:24:42.447Z,55.46
2022-08-09T00:25:41.516Z,55.16
2022-08-09T00:26:41.493Z,54.96
2022-08-09T00:27:43.007Z,55.46
2022-08-09T00:28:41.489Z,55.76
2022-08-09T00:30:24.515Z,55.76
2022-08-09T00:30:42.401Z,55.76
2022-08-09T00:31:59.150Z,55.76
2022-08-09T00:32:42.442Z,55.28
2022-08-09T00:33:50.542Z,55.99
2022-08-09T00:34:46.427Z,55.38
2022-08-09T00:35:42.707Z,55.05
2022-08-09T00:36:41.738Z,55.55
2022-08-09T00:37:41.299Z,55.99
2022-08-09T00:38:41.345Z,55.99
2022-08-09T00:40:13.629Z,55.88
2022-08-09T00:40:53.183Z,55.88
2022-08-09T00:44:10.714Z,55.88
2022-08-09T00:44:13.331Z,55.79
2022-08-09T00:44:17.020Z,55.88
2022-08-09T00:44:42.221Z,56.69
2022-08-09T00:45:50.529Z,57.09
2022-08-09T00:46:57.712Z,56.11
2022-08-09T00:47:42.063Z,56.79
2022-08-09T00:48:41.104Z,56.41
2022-08-09T00:49:42.178Z,57.12
2022-08-09T00:50:41.976Z,57.22
2022-08-09T00:51:54.628Z,57.32
2022-08-09T00:52:41.977Z,56.51
2022-08-09T00:53:41.030Z,56.82
2022-08-09T00:54:41.012Z,56.92
2022-08-09T00:56:04.459Z,56.92
2022-08-09T00:56:41.895Z,56.71
2022-08-09T00:57:40.948Z,56.82
2022-08-09T00:58:40.944Z,56.92
2022-08-09T00:59:47.036Z,56.71
2022-08-09T01:00:41.843Z,56.51
2022-08-09T01:01:45.008Z,57.32
2022-08-09T01:02:40.784Z,57.24
2022-08-09T01:03:46.330Z,57.42
2022-08-09T01:04:41.822Z,57.32
2022-08-09T01:05:51.475Z,57.15
2022-08-09T01:06:54.704Z,57.52
2022-08-09T01:07:59.902Z,57.55
2022-08-09T01:08:49.387Z,57.65
2022-08-09T01:09:41.732Z,58.05
2022-08-09T01:10:40.714Z,57.42
2022-08-09T01:11:40.707Z,58.25
2022-08-09T01:12:41.610Z,57.55
2022-08-09T01:13:53.378Z,57.42
2022-08-09T01:14:41.565Z,57.85
2022-08-09T01:15:40.955Z,57.75
2022-08-09T01:16:47.404Z,58.15
2022-08-09T01:17:42.149Z,57.85
2022-08-09T01:18:40.553Z,57.55
2022-08-09T01:19:51.742Z,57.85
2022-08-09T01:20:41.454Z,58.25
2022-08-09T01:21:44.461Z,57.75
2022-08-09T01:22:40.551Z,57.45
2022-08-09T01:24:01.903Z,57.75
2022-08-09T01:24:41.399Z,57.85
2022-08-09T01:25:41.667Z,58.35
2022-08-09T01:26:40.435Z,58.25
2022-08-09T01:27:40.441Z,58.35
2022-08-09T01:28:40.383Z,58.65
2022-08-09T01:29:40.888Z,57.95
2022-08-09T01:30:51.673Z,58.25
2022-08-09T01:32:31.908Z,57.85
2022-08-09T01:32:45.400Z,58.07
2022-08-09T01:33:40.329Z,58.88
2022-08-09T01:34:40.303Z,59.28
2022-08-09T01:35:42.350Z,59.08
2022-08-09T01:36:40.253Z,58.98
2022-08-09T01:38:06.354Z,59.08
2022-08-09T01:38:41.172Z,57.98
2022-08-09T01:39:41.215Z,58.98
2022-08-09T01:40:40.190Z,59.28
2022-08-09T01:41:53.546Z,59.39
2022-08-09T01:42:41.110Z,58.88
2022-08-09T01:43:42.234Z,59.39
2022-08-09T01:44:41.053Z,59.31
2022-08-09T01:45:46.144Z,59.82
2022-08-09T01:46:41.662Z,59.72
2022-08-09T01:47:44.652Z,59.42
2022-08-09T01:48:41.076Z,60.12
2022-08-09T01:49:40.030Z,59.82
2022-08-09T01:50:41.968Z,59.92
2022-08-09T01:51:43.065Z,60.02
2022-08-09T01:52:41.336Z,60.22
2022-08-09T01:53:41.165Z,59.82
2022-08-09T01:54:39.966Z,59.72
2022-08-09T01:55:39.911Z,60.02
2022-08-09T01:56:39.905Z,59.42
2022-08-09T01:57:45.911Z,59.72
2022-08-09T01:58:40.853Z,59.92
2022-08-09T01:59:40.839Z,60.42
2022-08-09T02:00:40.759Z,60.52
2022-08-09T02:01:59.346Z,60.93
2022-08-09T02:02:40.731Z,60.45
2022-08-09T02:03:39.770Z,60.32
2022-08-09T02:04:40.604Z,60.25
2022-08-09T02:06:04.094Z,60.35
2022-08-09T02:06:45.545Z,60.15
2022-08-09T02:08:39.387Z,61.25
2022-08-09T02:08:58.089Z,61.05
2022-08-09T02:09:41.886Z,60.85
2022-08-09T02:10:39.652Z,61.16
2022-08-09T02:11:42.920Z,60.96
2022-08-09T02:12:39.636Z,61.05
2022-08-09T02:13:40.669Z,61.36
2022-08-09T02:14:39.608Z,61.05
2022-08-09T02:15:49.627Z,60.96
2022-08-09T02:16:53.307Z,60.96
2022-08-09T02:18:09.763Z,61.25
2022-08-09T02:18:43.063Z,60.55
2022-08-09T02:19:43.237Z,60.55
2022-08-09T02:20:39.474Z,60.55
2022-08-09T02:21:39.453Z,60.75
2022-08-09T02:22:39.737Z,60.65
2022-08-09T02:23:39.734Z,60.55
2022-08-09T02:24:39.458Z,60.75
2022-08-09T02:25:42.449Z,60.65
2022-08-09T02:26:40.282Z,61.79
2022-08-09T02:27:57.621Z,61.39
2022-08-09T02:28:40.282Z,61.79
2022-08-09T02:29:39.331Z,61.99
2022-08-09T02:30:39.293Z,62.29
2022-08-09T02:31:39.291Z,62.09
2022-08-09T02:32:39.239Z,62.40
2022-08-09T02:34:07.022Z,61.59
2022-08-09T02:34:51.818Z,61.49
2022-08-09T02:35:46.362Z,62.09
2022-08-09T02:36:42.058Z,61.99
2022-08-09T02:37:39.175Z,62.40
2022-08-09T02:38:40.163Z,62.29
2022-08-09T02:39:42.533Z,62.09
2022-08-09T02:40:39.169Z,62.29
2022-08-09T02:41:39.094Z,62.29
2022-08-09T02:42:39.100Z,62.09
2022-08-09T02:43:54.270Z,61.92
2022-08-09T02:44:39.974Z,61.82
2022-08-09T02:45:39.062Z,62.63
2022-08-09T02:46:39.035Z,62.32
2022-08-09T02:47:57.229Z,62.32
2022-08-09T02:48:39.889Z,62.12
2022-08-09T02:49:41.441Z,62.83
2022-08-09T02:50:38.906Z,63.13
2022-08-09T02:51:40.391Z,62.63
2022-08-09T02:52:38.898Z,63.33
2022-08-09T02:53:38.942Z,63.33
2022-08-09T02:54:54.480Z,63.03
2022-08-09T02:55:57.618Z,63.23
2022-08-09T02:56:39.735Z,63.33
2022-08-09T02:57:40.505Z,63.64
2022-08-09T02:58:39.731Z,63.36
2022-08-09T02:59:38.785Z,63.56
2022-08-09T03:00:58.139Z,63.26
2022-08-09T03:01:43.217Z,63.26
2022-08-09T03:02:39.710Z,63.56
2022-08-09T03:04:16.883Z,63.26
2022-08-09T03:04:39.730Z,63.16
2022-08-09T03:05:38.672Z,63.56
2022-08-09T03:06:38.674Z,63.36
2022-08-09T03:07:38.635Z,63.16
2022-08-09T03:08:38.614Z,63.33
2022-08-09T03:09:42.930Z,63.26
2022-08-09T03:10:38.556Z,63.26
2022-08-09T03:12:05.205Z,63.67
2022-08-09T03:12:39.471Z,63.46
2022-08-09T03:13:43.874Z,63.36
2022-08-09T03:14:39.460Z,63.87
2022-08-09T03:15:40.562Z,63.76
2022-08-09T03:16:44.744Z,63.96
2022-08-09T03:17:39.454Z,64.40
2022-08-09T03:18:38.475Z,64.30
2022-08-09T03:19:58.001Z,64.40
2022-08-09T03:20:39.332Z,64.40
2022-08-09T03:21:39.699Z,64.30
2022-08-09T03:22:42.260Z,64.30
2022-08-09T03:23:39.342Z,64.40
2022-08-09T03:24:51.801Z,64.10
2022-08-09T03:25:59.260Z,64.50
2022-08-09T03:26:45.085Z,65.01
2022-08-09T03:27:45.359Z,64.61
2022-08-09T03:28:39.284Z,65.51
2022-08-09T03:29:43.245Z,64.37
2022-08-09T03:30:39.182Z,64.37
2022-08-09T03:31:42.615Z,64.58
2022-08-09T03:32:39.155Z,64.61
2022-08-09T03:33:53.461Z,64.20
2022-08-09T03:34:39.088Z,64.50
2022-08-09T03:35:44.294Z,65.51
2022-08-09T03:36:39.053Z,65.01
2022-08-09T03:37:54.268Z,65.34
2022-08-09T03:38:42.123Z,65.41
2022-08-09T03:39:38.388Z,65.51
2022-08-09T03:40:38.048Z,65.92
2022-08-09T03:41:48.302Z,65.71
2022-08-09T03:42:39.007Z,65.41
2022-08-09T03:43:38.022Z,65.92
2022-08-09T03:44:37.961Z,65.95
2022-08-09T03:46:03.230Z,66.45
2022-08-09T03:46:39.130Z,66.55
2022-08-09T03:47:41.871Z,66.45
2022-08-09T03:48:42.874Z,66.15
2022-08-09T03:49:38.976Z,65.51
2022-08-09T03:50:38.793Z,65.24
2022-08-09T03:51:56.613Z,65.61
2022-08-09T03:52:38.739Z,65.84
2022-08-09T03:53:37.864Z,66.96
2022-08-09T03:54:38.544Z,66.55
2022-08-09T03:55:40.701Z,66.15
2022-08-09T03:56:37.766Z,66.45
2022-08-09T03:57:44.751Z,66.78
2022-08-09T03:58:38.661Z,67.39
2022-08-09T03:59:42.988Z,67.29
2022-08-09T04:00:38.647Z,66.89
2022-08-09T04:01:37.593Z,67.19
2022-08-09T04:02:37.667Z,67.09
2022-08-09T04:03:46.042Z,66.69
2022-08-09T04:04:38.886Z,66.69
2022-08-09T04:05:40.399Z,66.58
2022-08-09T04:06:37.601Z,67.29
2022-08-09T04:07:52.682Z,67.39
2022-08-09T04:08:38.462Z,67.29
2022-08-09T04:09:48.355Z,67.19
2022-08-09T04:10:38.460Z,67.19
2022-08-09T04:11:37.506Z,67.19
2022-08-09T04:12:37.518Z,66.89
2022-08-09T04:14:37.179Z,66.58
2022-08-09T04:15:01.153Z,66.99
2022-08-09T04:16:18.044Z,67.09
2022-08-09T04:16:38.412Z,67.49
2022-08-09T04:17:37.320Z,67.29
2022-08-09T04:18:37.364Z,67.60
2022-08-09T04:19:51.254Z,67.90
2022-08-09T04:20:38.290Z,68.10
2022-08-09T04:21:40.177Z,67.83
2022-08-09T04:22:37.279Z,67.60
2022-08-09T04:23:37.255Z,67.69
2022-08-09T04:24:37.306Z,67.60
2022-08-09T04:25:37.282Z,67.63
2022-08-09T04:26:38.302Z,67.52
2022-08-09T04:27:37.830Z,67.52
2022-08-09T04:28:42.480Z,67.32
2022-08-09T04:29:38.084Z,67.39
2022-08-09T04:30:37.255Z,68.23
2022-08-09T04:31:47.333Z,67.09
2022-08-09T04:32:38.732Z,67.69
2022-08-09T04:33:53.015Z,68.20
2022-08-09T04:34:38.022Z,67.29
2022-08-09T04:35:38.085Z,67.39
2022-08-09T04:36:37.040Z,68.20
2022-08-09T04:37:45.669Z,67.49
2022-08-09T04:38:37.983Z,67.60
2022-08-09T04:39:40.700Z,68.10
2022-08-09T04:40:37.412Z,68.40
2022-08-09T04:41:43.449Z,68.30
2022-08-09T04:42:37.953Z,68.51
2022-08-09T04:43:36.923Z,68.30
2022-08-09T04:44:37.928Z,68.51
2022-08-09T04:45:54.062Z,68.54
2022-08-09T04:46:59.089Z,68.40
2022-08-09T04:47:59.264Z,68.51
2022-08-09T04:48:37.745Z,68.20
2022-08-09T04:49:53.148Z,68.51
2022-08-09T04:50:38.309Z,68.51
2022-08-09T04:51:36.719Z,68.10
2022-08-09T04:52:37.044Z,68.10
2022-08-09T04:53:36.653Z,68.40
2022-08-09T04:54:36.726Z,68.51
2022-08-09T04:55:39.368Z,68.30
2022-08-09T04:56:37.611Z,68.17
2022-08-09T04:57:59.299Z,68.40
2022-08-09T04:58:37.571Z,68.20
2022-08-09T04:59:36.527Z,67.90
2022-08-09T05:00:36.521Z,67.29
2022-08-09T05:01:36.507Z,66.86
2022-08-09T05:02:36.537Z,67.09
2022-08-09T05:03:43.278Z,68.43
2022-08-09T05:04:37.566Z,69.34
2022-08-09T05:05:52.676Z,69.55
2022-08-09T05:06:37.416Z,70.46
2022-08-09T05:07:36.399Z,70.76
2022-08-09T05:08:36.369Z,70.02
2022-08-09T05:09:42.098Z,69.82
2022-08-09T05:10:37.474Z,69.21
2022-08-09T05:11:36.305Z,69.01
2022-08-09T05:12:36.546Z,68.91
2022-08-09T05:13:38.653Z,68.67
2022-08-09T05:14:36.246Z,67.86
2022-08-09T05:15:43.071Z,67.16
2022-08-09T05:16:58.235Z,67.97
2022-08-09T05:18:39.192Z,67.83
2022-08-09T05:18:57.559Z,68.04
2022-08-09T05:19:45.882Z,67.06
2022-08-09T05:20:37.528Z,68.33
2022-08-09T05:21:46.640Z,67.23
2022-08-09T05:23:50.543Z,68.04
2022-08-09T05:23:53.882Z,67.23
2022-08-09T05:24:37.125Z,68.44
2022-08-09T05:25:36.088Z,67.02
2022-08-09T05:26:45.544Z,67.43
2022-08-09T05:27:38.866Z,67.19
2022-08-09T05:28:37.089Z,67.30
2022-08-09T05:29:36.004Z,66.99
2022-08-09T05:30:36.506Z,67.10
2022-08-09T05:31:44.392Z,66.69
2022-08-09T05:32:36.980Z,66.22
2022-08-09T05:33:38.803Z,67.83
2022-08-09T05:34:36.935Z,68.13
2022-08-09T05:35:45.046Z,67.93
2022-08-09T05:36:36.889Z,68.24
2022-08-09T05:37:46.381Z,68.33
2022-08-09T05:38:38.965Z,68.33
2022-08-09T05:39:42.768Z,68.24
2022-08-09T05:40:36.820Z,66.99
2022-08-09T05:41:35.905Z,66.56
2022-08-09T05:42:36.029Z,66.56
2022-08-09T05:43:35.771Z,66.25
2022-08-09T05:44:35.915Z,66.86
2022-08-09T05:45:52.517Z,66.53
2022-08-09T05:46:36.687Z,66.22
2022-08-09T05:47:35.700Z,66.36
2022-08-09T05:48:36.681Z,66.53
2022-08-09T05:50:29.896Z,66.56
2022-08-09T05:50:50.943Z,66.56
2022-08-09T05:51:46.170Z,66.56
2022-08-09T05:52:36.664Z,66.46
2022-08-09T05:53:39.523Z,66.42
2022-08-09T05:54:36.572Z,66.63
2022-08-09T05:55:35.539Z,66.83
2022-08-09T05:56:35.535Z,66.73
2022-08-09T05:57:50.903Z,65.62
2022-08-09T05:58:36.498Z,65.82
2022-08-09T05:59:35.489Z,65.52
2022-08-09T06:00:35.450Z,66.42
2022-08-09T06:01:42.777Z,66.02
2022-08-09T06:02:36.677Z,65.52
2022-08-09T06:03:44.006Z,65.09
2022-08-09T06:04:36.404Z,65.36
2022-08-09T06:05:58.147Z,64.65
2022-08-09T06:06:36.348Z,64.65
2022-08-09T06:07:35.302Z,64.55
2022-08-09T06:08:35.280Z,64.15
2022-08-09T06:09:54.024Z,64.18
2022-08-09T06:10:36.287Z,64.45
2022-08-09T06:11:41.069Z,64.05
2022-08-09T06:12:36.523Z,64.15
2022-08-09T06:13:35.212Z,64.05
2022-08-09T06:14:35.206Z,64.25
2022-08-09T06:15:35.171Z,64.45
2022-08-09T06:16:35.212Z,63.75
2022-08-09T06:17:40.096Z,64.45
2022-08-09T06:18:36.523Z,64.25
2022-08-09T06:19:35.105Z,64.45
2022-08-09T06:20:35.099Z,63.75
2022-08-09T06:21:35.092Z,63.82
2022-08-09T06:22:35.481Z,63.42
2022-08-09T06:23:57.410Z,63.18
2022-08-09T06:24:36.020Z,62.27
2022-08-09T06:25:34.998Z,62.38
2022-08-09T06:26:35.025Z,62.05
2022-08-09T06:27:42.555Z,62.45
2022-08-09T06:28:35.967Z,62.05
2022-08-09T06:29:48.252Z,60.91
2022-08-09T06:30:35.897Z,61.41
2022-08-09T06:31:39.748Z,61.91
2022-08-09T06:32:59.109Z,60.61
2022-08-09T06:33:41.072Z,61.91
2022-08-09T06:34:35.843Z,60.61
2022-08-09T06:35:56.021Z,61.85
2022-08-09T06:36:35.816Z,60.41
2022-08-09T06:37:52.793Z,61.61
2022-08-09T06:38:37.700Z,61.34
2022-08-09T06:39:49.165Z,61.54
2022-08-09T06:40:35.769Z,62.55
2022-08-09T06:41:57.479Z,62.24
2022-08-09T06:42:44.523Z,61.94
2022-08-09T06:43:35.678Z,61.34
2022-08-09T06:44:34.682Z,61.21
2022-08-09T06:46:05.235Z,61.14
2022-08-09T06:46:40.402Z,61.11
2022-08-09T06:47:39.880Z,61.11
2022-08-09T06:48:35.595Z,61.82
2022-08-09T06:50:12.234Z,61.44
2022-08-09T06:50:35.594Z,62.24
2022-08-09T06:51:39.033Z,61.34
2022-08-09T06:52:35.573Z,61.11
2022-08-09T06:53:38.457Z,60.48
2022-08-09T06:54:34.554Z,61.01
2022-08-09T06:55:34.477Z,59.58
2022-08-09T06:56:34.455Z,59.38
2022-08-09T06:58:01.881Z,59.67
2022-08-09T07:00:46.591Z,59.88
2022-08-09T07:00:48.647Z,59.47
2022-08-09T07:00:54.267Z,59.38
2022-08-09T07:01:53.748Z,59.45
2022-08-09T07:02:35.694Z,59.25
2022-08-09T07:03:34.297Z,58.11
2022-08-09T07:04:35.301Z,58.31
2022-08-09T07:05:53.676Z,58.22
2022-08-09T07:06:35.276Z,58.01
2022-08-09T07:08:00.767Z,57.81
2022-08-09T07:08:37.130Z,58.01
2022-08-09T07:09:54.931Z,57.81
2022-08-09T07:10:35.179Z,57.28
2022-08-09T07:11:52.063Z,57.39
2022-08-09T07:12:38.569Z,57.08
2022-08-09T07:13:45.329Z,57.39
2022-08-09T07:14:35.146Z,57.48
2022-08-09T07:16:36.539Z,57.39
2022-08-09T07:16:42.209Z,56.35
2022-08-09T07:17:39.654Z,55.63
2022-08-09T07:18:35.097Z,55.70
2022-08-09T07:19:34.038Z,55.32
2022-08-09T07:20:34.016Z,54.80
2022-08-09T07:21:35.008Z,54.82
2022-08-09T07:22:34.566Z,55.25
2022-08-09T07:23:36.250Z,55.75
2022-08-09T07:24:40.226Z,55.45
2022-08-09T07:25:42.697Z,55.73
2022-08-09T07:26:34.921Z,55.63
2022-08-09T07:27:42.745Z,55.02
2022-08-09T07:28:35.615Z,55.02
2022-08-09T07:29:37.710Z,55.32
2022-08-09T07:30:33.879Z,54.90
2022-08-09T07:31:38.403Z,55.00
2022-08-09T07:32:35.144Z,54.17
2022-08-09T07:33:52.228Z,53.27
2022-08-09T07:34:34.782Z,53.47
2022-08-09T07:35:53.227Z,53.67
2022-08-09T07:36:34.743Z,53.47
2022-08-09T07:37:43.623Z,53.97
2022-08-09T07:38:34.723Z,53.87
2022-08-09T07:39:41.051Z,54.27
2022-08-09T07:40:54.050Z,53.47
2022-08-09T07:41:38.876Z,53.47
2022-08-09T07:42:33.744Z,53.77
2022-08-09T07:43:33.709Z,53.77
2022-08-09T07:44:51.940Z,53.77
2022-08-09T07:45:37.629Z,53.47
2022-08-09T07:46:34.574Z,53.55
2022-08-09T07:47:39.590Z,53.24
2022-08-09T07:48:34.545Z,52.84
2022-08-09T07:49:33.733Z,52.52
2022-08-09T07:50:36.429Z,52.52
2022-08-09T07:52:04.647Z,52.92
2022-08-09T07:52:35.856Z,52.49
2022-08-09T07:53:36.479Z,51.59
2022-08-09T07:54:34.432Z,51.79
2022-08-09T07:56:03.712Z,51.47
2022-08-09T07:56:34.383Z,52.27
2022-08-09T07:57:33.755Z,52.29
2022-08-09T07:58:33.397Z,52.00
2022-08-09T07:59:45.459Z,51.59
2022-08-09T08:00:36.494Z,51.79
2022-08-09T08:01:34.210Z,52.09
2022-08-09T08:02:33.592Z,51.69
2022-08-09T08:03:33.347Z,51.79
2022-08-09T08:04:33.405Z,51.87
2022-08-09T08:05:39.154Z,51.07
2022-08-09T08:06:35.220Z,51.57
2022-08-09T08:08:43.397Z,51.37
2022-08-09T08:09:00.513Z,50.45
2022-08-09T08:09:41.192Z,50.24
2022-08-09T08:10:34.611Z,50.04
2022-08-09T08:12:11.583Z,50.84
2022-08-09T08:12:34.091Z,50.87
2022-08-09T08:13:38.226Z,51.47
2022-08-09T08:14:34.061Z,50.97
2022-08-09T08:15:37.466Z,50.84
2022-08-09T08:16:32.999Z,50.95
2022-08-09T08:17:54.228Z,50.92
2022-08-09T08:18:33.970Z,50.62
2022-08-09T08:19:33.086Z,50.22
2022-08-09T08:20:33.425Z,49.72
2022-08-09T08:21:33.045Z,49.40
2022-08-09T08:22:33.238Z,49.18
2022-08-09T08:23:34.958Z,49.48
2022-08-09T08:24:40.230Z,49.38
2022-08-09T08:25:44.186Z,49.08
2022-08-09T08:26:42.179Z,49.27
2022-08-09T08:27:40.742Z,49.27
2022-08-09T08:28:35.107Z,49.57
2022-08-09T08:29:39.205Z,48.97
2022-08-09T08:30:33.794Z,48.46
2022-08-09T08:32:02.524Z,48.18
2022-08-09T08:32:33.747Z,49.48
2022-08-09T08:33:40.702Z,49.38
2022-08-09T08:34:34.597Z,49.48
2022-08-09T08:35:53.001Z,49.27
2022-08-09T08:36:33.702Z,49.27
2022-08-09T08:37:41.593Z,48.78
2022-08-09T08:38:33.618Z,48.75
2022-08-09T08:39:38.229Z,48.75
2022-08-09T08:40:33.661Z,48.16
2022-08-09T08:41:50.415Z,48.53
2022-08-09T08:42:33.745Z,47.83
2022-08-09T08:43:32.650Z,48.21
2022-08-09T08:44:32.537Z,47.26
2022-08-09T08:45:37.663Z,47.56
2022-08-09T08:46:59.415Z,47.53
2022-08-09T08:47:33.588Z,48.03
2022-08-09T08:48:33.460Z,48.03
2022-08-09T08:49:38.310Z,48.05
2022-08-09T08:50:33.471Z,48.25
2022-08-09T08:51:38.848Z,48.35
2022-08-09T08:53:37.294Z,47.51
2022-08-09T08:54:32.357Z,47.39
2022-08-09T08:55:32.473Z,47.02
2022-08-09T08:56:32.321Z,47.91
2022-08-09T08:57:35.167Z,47.91
2022-08-09T08:58:32.310Z,47.51
2022-08-09T08:59:46.585Z,46.99
2022-08-09T09:00:34.708Z,46.37
2022-08-09T09:01:45.052Z,46.35
2022-08-09T09:02:33.809Z,45.95
2022-08-09T09:03:33.069Z,45.75
2022-08-09T09:04:37.782Z,45.85
2022-08-09T09:05:58.541Z,45.95
2022-08-09T09:06:33.167Z,46.17
2022-08-09T09:07:32.261Z,46.45
2022-08-09T09:08:32.185Z,45.85
2022-08-09T09:09:58.171Z,45.95
2022-08-09T09:10:33.075Z,45.43
2022-08-09T09:11:33.750Z,44.34
2022-08-09T09:12:35.436Z,45.43
2022-08-09T09:13:42.226Z,45.63
2022-08-09T09:14:32.986Z,44.93
2022-08-09T09:15:32.085Z,45.14
2022-08-09T09:16:34.375Z,44.64
2022-08-09T09:17:48.117Z,44.54
2022-08-09T09:18:32.971Z,44.42
2022-08-09T09:19:41.093Z,44.42
2022-08-09T09:20:32.918Z,43.20
2022-08-09T09:21:32.301Z,43.40
2022-08-09T09:22:32.864Z,43.80
2022-08-09T09:23:37.778Z,43.28
2022-08-09T09:24:32.798Z,43.08
2022-08-09T09:26:03.467Z,42.58
2022-08-09T09:26:32.779Z,42.49
2022-08-09T09:28:05.567Z,42.88
2022-08-09T09:29:02.875Z,42.79
2022-08-09T09:29:45.983Z,42.69
2022-08-09T09:30:41.065Z,42.79
2022-08-09T09:32:04.659Z,42.88
2022-08-09T09:32:34.921Z,42.29
2022-08-09T09:33:44.919Z,42.17
2022-08-09T09:34:33.851Z,42.15
2022-08-09T09:35:33.259Z,42.15
2022-08-09T09:36:31.601Z,41.97
2022-08-09T09:37:32.388Z,42.27
2022-08-09T09:38:37.144Z,41.85
2022-08-09T09:39:50.394Z,41.85
2022-08-09T09:40:32.561Z,41.44
2022-08-09T09:41:32.942Z,41.33
2022-08-09T09:42:31.833Z,40.72
2022-08-09T09:43:31.601Z,40.72
2022-08-09T09:44:32.490Z,40.64
2022-08-09T09:45:32.082Z,40.92
2022-08-09T09:46:52.116Z,40.62
2022-08-09T09:47:33.727Z,40.50
2022-08-09T09:48:32.355Z,39.91
2022-08-09T09:49:50.102Z,39.51
2022-08-09T09:50:32.372Z,39.81
2022-08-09T09:51:38.023Z,40.80
2022-08-09T09:52:52.447Z,40.52
2022-08-09T09:53:57.411Z,40.62
2022-08-09T09:54:32.376Z,40.92
2022-08-09T09:55:33.214Z,40.12
2022-08-09T09:56:33.562Z,40.60
2022-08-09T09:58:04.139Z,40.11
2022-08-09T09:58:32.224Z,40.01
2022-08-09T09:59:35.387Z,38.72
2022-08-09T10:00:31.195Z,40.09
2022-08-09T10:01:38.176Z,39.20
2022-08-09T10:02:32.344Z,38.90
2022-08-09T10:03:31.196Z,37.60
2022-08-09T10:04:31.500Z,37.60
2022-08-09T10:06:03.290Z,38.70
2022-08-09T10:06:32.681Z,37.99
2022-08-09T10:07:31.368Z,38.68
2022-08-09T10:08:31.041Z,38.29
2022-08-09T10:09:31.079Z,38.68
2022-08-09T10:10:31.313Z,38.57
2022-08-09T10:12:00.163Z,38.45
2022-08-09T10:12:31.924Z,37.54
2022-08-09T10:13:43.316Z,37.54
2022-08-09T10:14:33.584Z,37.13
2022-08-09T10:16:08.996Z,36.46
2022-08-09T10:16:56.723Z,36.16
2022-08-09T10:17:51.050Z,36.16
2022-08-09T10:18:31.917Z,37.03
2022-08-09T10:19:30.904Z,36.75
2022-08-09T10:20:35.886Z,36.36
2022-08-09T10:21:31.889Z,36.36
2022-08-09T10:22:30.892Z,36.18
2022-08-09T10:23:30.905Z,37.45
2022-08-09T10:24:35.897Z,36.85
2022-08-09T10:25:34.487Z,35.86
2022-08-09T10:26:31.707Z,36.25
2022-08-09T10:27:38.521Z,36.25
2022-08-09T10:28:31.632Z,36.65
2022-08-09T10:30:12.887Z,36.57
2022-08-09T10:32:40.133Z,36.39
2022-08-09T10:34:09.173Z,36.69
2022-08-09T10:34:33.909Z,35.88
2022-08-09T10:35:30.716Z,34.97
2022-08-09T10:36:30.602Z,35.76
2022-08-09T10:37:30.639Z,35.57
2022-08-09T10:38:43.224Z,35.47
2022-08-09T10:39:40.932Z,35.45
2022-08-09T10:40:37.607Z,35.25
2022-08-09T10:41:31.547Z,35.58
2022-08-09T10:42:32.342Z,35.80
2022-08-09T10:43:36.076Z,36.29
2022-08-09T10:44:31.774Z,35.78
2022-08-09T10:45:31.980Z,35.28
2022-08-09T10:46:31.341Z,35.55
2022-08-09T10:48:16.614Z,34.06
2022-08-09T10:48:31.373Z,34.15
2022-08-09T10:49:50.301Z,33.26
2022-08-09T10:50:32.963Z,33.26
2022-08-09T10:51:40.814Z,33.44
2022-08-09T10:52:31.609Z,33.16
2022-08-09T10:53:32.037Z,33.06
2022-08-09T10:54:31.194Z,33.75
2022-08-09T10:55:35.697Z,33.97
2022-08-09T10:56:31.142Z,34.27
2022-08-09T10:57:30.502Z,33.85
2022-08-09T10:58:30.083Z,33.25
2022-08-09T10:59:31.109Z,33.04
2022-08-09T11:00:30.071Z,33.54
2022-08-09T11:03:11.362Z,33.25
2022-08-09T11:03:14.512Z,33.15
2022-08-09T11:03:49.676Z,33.04
2022-08-09T11:04:32.575Z,33.13
2022-08-09T11:05:31.094Z,32.64
2022-08-09T11:06:30.019Z,33.33
2022-08-09T11:07:58.260Z,33.95
2022-08-09T11:08:33.389Z,33.44
2022-08-09T11:09:32.565Z,32.73
2022-08-09T11:10:30.870Z,33.33
2022-08-09T11:11:29.955Z,32.72
2022-08-09T11:12:30.297Z,31.92
2022-08-09T11:13:51.183Z,31.82
2022-08-09T11:14:32.073Z,31.90
2022-08-09T11:15:33.699Z,31.01
2022-08-09T11:16:33.454Z,31.80
2022-08-09T11:17:31.043Z,32.10
2022-08-09T11:18:29.862Z,31.60
2022-08-09T11:20:19.900Z,31.60
2022-08-09T11:20:30.797Z,32.39
2022-08-09T11:21:29.829Z,31.41
2022-08-09T11:22:29.648Z,31.60
2022-08-09T11:23:30.105Z,31.69
2022-08-09T11:24:29.668Z,31.59
2022-08-09T11:25:44.680Z,32.08
2022-08-09T11:26:30.660Z,31.88
2022-08-09T11:28:03.664Z,32.28
2022-08-09T11:28:34.588Z,31.98
2022-08-09T11:30:04.552Z,31.49
2022-08-09T11:30:32.648Z,31.67
2022-08-09T11:31:36.404Z,32.07
2022-08-09T11:32:30.702Z,31.57
2022-08-09T11:33:29.645Z,31.38
2022-08-09T11:34:29.498Z,31.87
2022-08-09T11:35:35.289Z,31.39
2022-08-09T11:36:35.455Z,30.90
2022-08-09T11:37:41.429Z,31.39
2022-08-09T11:38:33.137Z,31.79
2022-08-09T11:39:38.055Z,31.39
2022-08-09T11:40:30.413Z,31.39
2022-08-09T11:41:37.669Z,30.79
2022-08-09T11:42:30.699Z,32.17
2022-08-09T11:43:32.234Z,30.69
2022-08-09T11:44:29.375Z,30.79
2022-08-09T11:45:42.087Z,30.08
2022-08-09T11:46:33.239Z,30.97
2022-08-09T11:47:29.449Z,30.69
2022-08-09T11:48:30.253Z,31.09
2022-08-09T11:49:42.904Z,30.69
2022-08-09T11:50:55.136Z,31.07
2022-08-09T11:53:03.109Z,30.76
2022-08-09T11:53:06.296Z,30.68
2022-08-09T11:54:01.696Z,29.68
2022-08-09T11:54:34.722Z,30.27
2022-08-09T11:55:35.099Z,29.66
2022-08-09T11:56:47.527Z,29.97
2022-08-09T11:57:47.802Z,29.76
2022-08-09T11:58:33.119Z,29.76
2022-08-09T11:59:30.708Z,29.25
2022-08-09T12:00:29.025Z,28.67
2022-08-09T12:02:17.863Z,28.96
2022-08-09T12:02:51.058Z,29.64
2022-08-09T12:03:55.793Z,29.16
2022-08-09T12:04:37.242Z,29.85
2022-08-09T12:05:32.326Z,29.75
2022-08-09T12:06:32.428Z,29.76
2022-08-09T12:07:41.191Z,29.76
2022-08-09T12:08:29.977Z,29.89
2022-08-09T12:09:33.959Z,29.69
2022-08-09T12:10:38.373Z,30.07
2022-08-09T12:11:32.347Z,30.28
2022-08-09T12:12:32.043Z,29.10
2022-08-09T12:14:07.695Z,29.69
2022-08-09T12:14:36.929Z,29.48
2022-08-09T12:15:49.616Z,30.05
2022-08-09T12:16:37.862Z,28.93
2022-08-09T12:17:41.657Z,28.15
2022-08-09T12:18:31.137Z,28.12
2022-08-09T12:19:28.786Z,27.73
2022-08-09T12:20:28.684Z,28.74
2022-08-09T12:21:32.625Z,29.03
2022-08-09T12:22:29.587Z,28.53
2022-08-09T12:23:56.347Z,28.11
2022-08-09T12:24:29.533Z,27.01
2022-08-09T12:25:35.661Z,26.92
2022-08-09T12:26:29.602Z,26.61
2022-08-09T12:29:10.638Z,28.54
2022-08-09T12:29:14.711Z,28.33
2022-08-09T12:29:32.996Z,28.86
2022-08-09T12:30:36.165Z,30.07
2022-08-09T12:31:57.907Z,28.99
2022-08-09T12:32:29.438Z,29.00
2022-08-09T12:33:51.466Z,30.00
2022-08-09T12:34:29.396Z,29.71
2022-08-09T12:35:28.563Z,30.71
2022-08-09T12:36:32.063Z,29.82
2022-08-09T12:37:29.265Z,29.39
2022-08-09T12:38:29.511Z,29.68
2022-08-09T12:39:29.571Z,28.57
2022-08-09T12:40:28.419Z,29.24
2022-08-09T12:41:28.481Z,27.66
2022-08-09T12:42:28.383Z,27.25
2022-08-09T12:44:06.705Z,28.03
2022-08-09T12:44:29.314Z,27.24
2022-08-09T12:45:34.237Z,27.44
2022-08-09T12:46:29.203Z,27.26
2022-08-09T12:47:28.341Z,28.44
2022-08-09T12:48:33.117Z,27.74
2022-08-09T12:49:28.359Z,26.82
2022-08-09T12:50:28.575Z,26.40
2022-08-09T12:51:52.492Z,26.79
2022-08-09T12:52:42.748Z,26.51
2022-08-09T12:53:35.021Z,26.21
2022-08-09T12:54:29.058Z,26.21
2022-08-09T12:56:14.986Z,26.42